Hlavní strana
METAR-TAF:

METAR-TAF

Letiště :

Nagasaki, Japonsko

zeměpisná šířka: 32-55N, zeměpisná délka: 129-55E, výška: 2 m

Aktuální stav počasí

Zpráva byla vytvořena před 31 minutami, v 05:00 UTC
Jihojihovýchodní vítr 8 kt
Teplota 11°C
Vlhkost vzduchu 50%
Tlak 1026 hPa
Viditelnost 10 km a více
Skoro jasno ve výšce 4000 ft

METAR: RJFU 210500Z 16008KT 9999 FEW040 11/01 Q1026

Čas: 14:31 (05:31 UTC)

Předpověď počasí

Zpráva byla vytvořena před 6 hodinami a 22 minutami, v 23:09 UTC
Předpověď platná od 21 v 00 UTC do 22 v 06 UTC
Východoseverovýchodní vítr 4 kt
Viditelnost 10 km a více
Skoro jasno ve výšce 4000 ft
Změna
od 21 v 01 UTC do 21 v 03 UTC
Severní vítr 6 kt
Změna
od 21 v 07 UTC do 21 v 09 UTC
Východoseverovýchodní vítr 4 kt
Změna
od 21 v 18 UTC do 21 v 21 UTC
Jihovýchodní vítr 11 kt

TAF: RJFU 202309Z 2100/2206 07004KT 9999 FEW040 BECMG 2101/2103 36006KT BECMG 2107/2109 07004KT BECMG 2118/2121 13011KT

Stav a předpovědi počasí z více než 4 000 letišť (zprávy METAR a TAF).

Červené a žluté tečky na mapě představují dostupné meteorologické stanice.

Když kurzor umístíte na tečku, zobrazí se název stanice.

Pak kliknutím zobrazíte stav a předpověď počasí.

Chcete-li změnit mapu, kliknutím na zelené tlačítko se znaménkem +mapu přiblížíte, kliknutím na zelené tlačítko se znaménkem – mapu oddálíte a kliknutím na zelené šipky přejdete na sousední mapy.


METAR-TAF: